Time;durP1;ratioP1;P1;durP2;ratioP2;P2;SDS_P1;SDS_P2;PMS_P1;PMS_P2;Temp;Humidity;BMP_temperature;BMP_pressure;BME280_temperature;BME280_humidity;BME280_pressure;Samples;Min_cycle;Max_cycle;Signal;HPM_P1;HPM_P2
2022/06/11 00:00:49;;;;;;;2.47;1.92;;;;;;;;;;4734374;30;20053;-59
2022/06/11 00:03:17;;;;;;;4.28;2.28;;;;;;;;;;4734256;30;20055;-60
2022/06/11 00:05:45;;;;;;;3.47;2.33;;;;;;;;;;4734644;30;20055;-59
2022/06/11 00:08:13;;;;;;;3.72;2.40;;;;;;;;;;4734537;30;20084;-60
2022/06/11 00:10:40;;;;;;;4.45;3.63;;;;;;;;;;4734119;30;20049;-59
2022/06/11 00:13:08;;;;;;;5.50;2.80;;;;;;;;;;4734338;30;20053;-59
2022/06/11 00:15:36;;;;;;;3.25;2.35;;;;;;;;;;4733934;30;20048;-59
2022/06/11 00:18:05;;;;;;;4.28;2.75;;;;;;;;;;4733864;30;20076;-60
2022/06/11 00:20:32;;;;;;;3.28;2.30;;;;;;;;;;4734318;30;20514;-60
2022/06/11 00:23:00;;;;;;;3.10;2.08;;;;;;;;;;4734099;30;20048;-60
2022/06/11 00:25:28;;;;;;;6.00;2.38;;;;;;;;;;4733983;30;20088;-59
2022/06/11 00:27:57;;;;;;;5.13;2.80;;;;;;;;;;4734099;30;20163;-60
2022/06/11 00:30:25;;;;;;;2.72;2.10;;;;;;;;;;4732873;30;20498;-59
2022/06/11 00:32:55;;;;;;;5.00;2.20;;;;;;;;;;4733983;30;20057;-59
2022/06/11 00:35:25;;;;;;;3.85;2.25;;;;;;;;;;4734054;30;20060;-59
2022/06/11 00:37:52;;;;;;;3.53;1.73;;;;;;;;;;4734166;30;20131;-60
2022/06/11 00:40:24;;;;;;;3.22;2.10;;;;;;;;;;4733842;30;20036;-60
2022/06/11 00:42:52;;;;;;;5.15;2.50;;;;;;;;;;4732885;30;20599;-59
2022/06/11 00:45:31;;;;;;;3.83;2.38;;;;;;;;;;4733768;30;20506;-59
2022/06/11 00:48:36;;;;;;;2.80;2.20;;;;;;;;;;4734090;30;20129;-60
2022/06/11 00:51:11;;;;;;;3.45;1.92;;;;;;;;;;4733539;30;20052;-59
2022/06/11 00:53:48;;;;;;;4.68;2.25;;;;;;;;;;4733688;30;20129;-60
2022/06/11 00:56:21;;;;;;;3.10;2.08;;;;;;;;;;4733994;30;20044;-60
2022/06/11 00:58:51;;;;;;;3.83;2.13;;;;;;;;;;4733621;30;20080;-59
2022/06/11 01:01:23;;;;;;;4.38;2.10;;;;;;;;;;4733698;30;20055;-59
2022/06/11 01:03:53;;;;;;;3.97;2.30;;;;;;;;;;4733652;30;20149;-59
2022/06/11 01:06:39;;;;;;;3.67;2.42;;;;;;;;;;4733370;30;20036;-59
2022/06/11 01:09:41;;;;;;;2.80;2.15;;;;;;;;;;4733775;30;20246;-59
2022/06/11 01:12:32;;;;;;;3.55;2.70;;;;;;;;;;4733795;30;20132;-60
2022/06/11 01:15:02;;;;;;;4.80;2.25;;;;;;;;;;4733710;30;20059;-60
2022/06/11 01:17:43;;;;;;;3.50;2.40;;;;;;;;;;4733617;30;20045;-60
2022/06/11 01:20:29;;;;;;;3.22;2.20;;;;;;;;;;4733564;30;20045;-59
2022/06/11 01:23:19;;;;;;;5.25;2.20;;;;;;;;;;4733700;30;20118;-58
2022/06/11 01:26:11;;;;;;;6.47;2.63;;;;;;;;;;4734240;30;20045;-61
2022/06/11 01:29:10;;;;;;;3.15;2.00;;;;;;;;;;4733183;30;20080;-59
2022/06/11 01:31:46;;;;;;;5.72;2.35;;;;;;;;;;4735609;30;20055;-58
2022/06/11 01:34:24;;;;;;;5.40;2.85;;;;;;;;;;4736966;30;20049;-61
2022/06/11 01:36:57;;;;;;;6.22;2.65;;;;;;;;;;4736679;30;20045;-60
2022/06/11 01:39:34;;;;;;;3.60;2.60;;;;;;;;;;4736844;30;20051;-60
2022/06/11 01:42:16;;;;;;;4.50;2.45;;;;;;;;;;4735601;30;20509;-60
2022/06/11 01:44:44;;;;;;;4.43;2.58;;;;;;;;;;4736875;30;20051;-60
2022/06/11 01:47:14;;;;;;;4.00;2.50;;;;;;;;;;4736433;30;20044;-60
2022/06/11 01:49:47;;;;;;;2.83;2.28;;;;;;;;;;4736612;30;20045;-60
2022/06/11 01:52:37;;;;;;;3.08;2.03;;;;;;;;;;4736673;30;20044;-60
2022/06/11 01:55:29;;;;;;;8.93;2.50;;;;;;;;;;4735378;30;20144;-60
2022/06/11 01:58:18;;;;;;;3.03;2.13;;;;;;;;;;4736343;30;20525;-60
2022/06/11 02:01:02;;;;;;;3.22;2.50;;;;;;;;;;4736661;30;20398;-60
2022/06/11 02:03:46;;;;;;;5.45;2.90;;;;;;;;;;4736209;30;20071;-60
2022/06/11 02:06:23;;;;;;;10.52;2.63;;;;;;;;;;4736328;30;20465;-60
2022/06/11 02:09:17;;;;;;;3.28;2.20;;;;;;;;;;4736202;30;20049;-60
2022/06/11 02:11:47;;;;;;;2.80;2.08;;;;;;;;;;4733909;30;20472;-61
2022/06/11 02:14:18;;;;;;;3.83;2.30;;;;;;;;;;4736180;30;20119;-59
2022/06/11 02:16:56;;;;;;;3.22;2.47;;;;;;;;;;4736517;30;20048;-60
2022/06/11 02:19:34;;;;;;;2.97;2.00;;;;;;;;;;4736045;30;20056;-60
2022/06/11 02:22:08;;;;;;;5.07;2.17;;;;;;;;;;4736112;30;20044;-60
2022/06/11 02:24:41;;;;;;;3.70;2.30;;;;;;;;;;4736024;30;20071;-61
2022/06/11 02:27:17;;;;;;;2.88;1.88;;;;;;;;;;4735877;30;20052;-60
2022/06/11 02:29:46;;;;;;;3.65;2.10;;;;;;;;;;4736006;30;20048;-60
2022/06/11 02:32:18;;;;;;;3.75;2.35;;;;;;;;;;4736220;30;20495;-59
2022/06/11 02:34:59;;;;;;;5.93;2.15;;;;;;;;;;4735932;30;20529;-60
2022/06/11 02:37:30;;;;;;;4.05;2.50;;;;;;;;;;4735710;30;20064;-60
2022/06/11 02:40:04;;;;;;;8.52;2.35;;;;;;;;;;4735794;30;20123;-60
2022/06/11 02:42:32;;;;;;;4.97;2.08;;;;;;;;;;4735368;30;20080;-60
2022/06/11 02:44:59;;;;;;;3.83;2.15;;;;;;;;;;4735645;30;20115;-60
2022/06/11 02:47:27;;;;;;;4.07;2.75;;;;;;;;;;4735540;30;20044;-60
2022/06/11 02:49:54;;;;;;;3.42;2.10;;;;;;;;;;4735433;30;20051;-65
2022/06/11 02:52:24;;;;;;;4.00;2.17;;;;;;;;;;4735582;30;20049;-60
2022/06/11 02:54:52;;;;;;;3.92;2.80;;;;;;;;;;4735619;30;20052;-60
2022/06/11 02:57:23;;;;;;;3.88;2.35;;;;;;;;;;4735452;30;20083;-59
2022/06/11 02:59:52;;;;;;;3.55;2.13;;;;;;;;;;4735419;30;20049;-60
2022/06/11 03:02:20;;;;;;;4.38;2.20;;;;;;;;;;4735170;30;20059;-59
2022/06/11 03:04:49;;;;;;;2.95;2.38;;;;;;;;;;4735414;30;20057;-58
2022/06/11 03:07:19;;;;;;;4.93;2.50;;;;;;;;;;4735269;30;20060;-58
2022/06/11 03:09:47;;;;;;;4.60;2.35;;;;;;;;;;4735499;30;20048;-60
2022/06/11 03:12:15;;;;;;;3.10;2.28;;;;;;;;;;4735533;30;20048;-60
2022/06/11 03:14:44;;;;;;;4.00;2.33;;;;;;;;;;4735011;30;20123;-60
2022/06/11 03:17:13;;;;;;;4.47;2.20;;;;;;;;;;4735338;30;20462;-60
2022/06/11 03:19:41;;;;;;;4.03;2.20;;;;;;;;;;4735095;30;20049;-60
2022/06/11 03:22:08;;;;;;;3.00;1.77;;;;;;;;;;4735153;30;20736;-60
2022/06/11 03:24:36;;;;;;;3.17;1.70;;;;;;;;;;4735124;30;20075;-60
2022/06/11 03:27:05;;;;;;;2.58;1.80;;;;;;;;;;4720187;30;20049;-60
2022/06/11 03:29:32;;;;;;;5.88;2.00;;;;;;;;;;4717264;30;20060;-61
2022/06/11 03:32:00;;;;;;;3.45;1.80;;;;;;;;;;4717611;30;20124;-60
2022/06/11 03:34:27;;;;;;;2.60;1.65;;;;;;;;;;4717505;30;20053;-60
2022/06/11 03:36:57;;;;;;;2.25;1.50;;;;;;;;;;4717438;30;20111;-60
2022/06/11 03:39:24;;;;;;;5.22;1.55;;;;;;;;;;4717199;30;20494;-61
2022/06/11 03:41:53;;;;;;;3.72;1.50;;;;;;;;;;4717091;30;20056;-60
2022/06/11 03:44:21;;;;;;;3.45;1.70;;;;;;;;;;4717281;30;20080;-57
2022/06/11 03:46:48;;;;;;;3.75;1.75;;;;;;;;;;4717338;30;20498;-58
2022/06/11 03:49:17;;;;;;;1.98;1.40;;;;;;;;;;4717481;30;20057;-60
2022/06/11 03:51:46;;;;;;;3.63;1.48;;;;;;;;;;4717358;30;20045;-60
2022/06/11 03:54:14;;;;;;;2.03;1.45;;;;;;;;;;4717057;30;20457;-61
2022/06/11 03:56:43;;;;;;;1.92;1.15;;;;;;;;;;4716919;30;20136;-60
2022/06/11 03:59:10;;;;;;;3.65;1.63;;;;;;;;;;4728722;30;20044;-61
2022/06/11 04:01:39;;;;;;;2.70;1.75;;;;;;;;;;4734441;30;20049;-60
2022/06/11 04:04:10;;;;;;;5.50;2.00;;;;;;;;;;4734134;30;20095;-60
2022/06/11 04:07:01;;;;;;;2.35;1.30;;;;;;;;;;4734416;30;20135;-61
2022/06/11 04:09:32;;;;;;;2.60;1.45;;;;;;;;;;4734433;30;20406;-60
2022/06/11 04:12:01;;;;;;;3.05;1.60;;;;;;;;;;4734355;30;20509;-60
2022/06/11 04:14:28;;;;;;;1.92;1.30;;;;;;;;;;4734434;30;20041;-60
2022/06/11 04:17:03;;;;;;;2.47;1.48;;;;;;;;;;4734361;30;20418;-60
2022/06/11 04:19:35;;;;;;;2.88;1.40;;;;;;;;;;4733930;30;20077;-58
2022/06/11 04:22:04;;;;;;;2.80;1.20;;;;;;;;;;4734232;30;20048;-64
2022/06/11 04:24:32;;;;;;;4.22;1.30;;;;;;;;;;4734162;30;20052;-60
2022/06/11 04:27:01;;;;;;;2.10;1.40;;;;;;;;;;4734159;30;20059;-60
2022/06/11 04:29:33;;;;;;;1.70;1.30;;;;;;;;;;4733909;30;20124;-60
2022/06/11 04:32:03;;;;;;;1.73;1.10;;;;;;;;;;4734048;30;20048;-57
2022/06/11 04:34:31;;;;;;;1.92;0.80;;;;;;;;;;4733853;30;20049;-58
2022/06/11 04:36:59;;;;;;;2.65;1.35;;;;;;;;;;4734138;30;20052;-59
2022/06/11 04:39:29;;;;;;;1.80;1.17;;;;;;;;;;4733865;30;20095;-60
2022/06/11 04:41:58;;;;;;;2.15;1.05;;;;;;;;;;4734016;30;20058;-60
2022/06/11 04:44:26;;;;;;;2.53;1.10;;;;;;;;;;4733790;30;20458;-60
2022/06/11 04:46:54;;;;;;;2.85;1.10;;;;;;;;;;4733899;30;20053;-56
2022/06/11 04:49:22;;;;;;;2.55;1.10;;;;;;;;;;4733838;30;20102;-60
2022/06/11 04:51:49;;;;;;;1.63;0.98;;;;;;;;;;4733843;30;20049;-59
2022/06/11 04:54:17;;;;;;;2.40;1.00;;;;;;;;;;4734255;30;20053;-59
2022/06/11 04:56:45;;;;;;;2.67;1.00;;;;;;;;;;4734016;30;20052;-60
2022/06/11 04:59:12;;;;;;;2.97;1.13;;;;;;;;;;4733650;30;20049;-57
2022/06/11 05:01:41;;;;;;;2.53;1.20;;;;;;;;;;4733706;30;20510;-59
2022/06/11 05:04:09;;;;;;;1.45;0.95;;;;;;;;;;4733695;30;20063;-60
2022/06/11 05:06:39;;;;;;;2.03;1.10;;;;;;;;;;4737329;30;20052;-60
2022/06/11 05:09:10;;;;;;;1.95;1.02;;;;;;;;;;4737444;30;20418;-60
2022/06/11 05:11:38;;;;;;;2.75;0.93;;;;;;;;;;4737035;30;20055;-60
2022/06/11 05:14:05;;;;;;;1.73;0.80;;;;;;;;;;4737397;30;20049;-61
2022/06/11 05:16:34;;;;;;;1.15;0.90;;;;;;;;;;4750522;30;20099;-60
2022/06/11 05:19:03;;;;;;;2.88;0.80;;;;;;;;;;4737128;30;20072;-60
2022/06/11 05:21:30;;;;;;;2.45;0.70;;;;;;;;;;4737039;30;20060;-60
2022/06/11 05:23:58;;;;;;;1.30;0.60;;;;;;;;;;4737013;30;20095;-60
2022/06/11 05:26:32;;;;;;;1.80;0.80;;;;;;;;;;4737099;30;20079;-61
2022/06/11 05:29:00;;;;;;;3.03;0.73;;;;;;;;;;4736875;30;20079;-60
2022/06/11 05:31:27;;;;;;;1.50;1.17;;;;;;;;;;4736899;30;20053;-60
2022/06/11 05:33:55;;;;;;;1.30;0.73;;;;;;;;;;4735527;30;20509;-60
2022/06/11 05:36:22;;;;;;;1.45;0.70;;;;;;;;;;4736888;30;20091;-60
2022/06/11 05:38:50;;;;;;;2.88;0.80;;;;;;;;;;4736780;30;20124;-60
2022/06/11 05:41:17;;;;;;;0.93;0.65;;;;;;;;;;4737001;30;20083;-59
2022/06/11 05:43:45;;;;;;;2.47;0.90;;;;;;;;;;4736938;30;20048;-59
2022/06/11 05:46:17;;;;;;;2.08;0.88;;;;;;;;;;4736661;30;20099;-60
2022/06/11 05:48:48;;;;;;;5.57;1.00;;;;;;;;;;4736871;30;20402;-60
2022/06/11 05:51:25;;;;;;;1.20;0.60;;;;;;;;;;4736768;30;20063;-60
2022/06/11 05:53:54;;;;;;;1.67;0.60;;;;;;;;;;4736647;30;20468;-66
2022/06/11 05:56:22;;;;;;;1.55;0.80;;;;;;;;;;4736543;30;20083;-60
2022/06/11 05:58:53;;;;;;;2.28;0.55;;;;;;;;;;4736606;30;20064;-57
2022/06/11 06:01:32;;;;;;;1.27;0.77;;;;;;;;;;4736357;30;20057;-60
2022/06/11 06:03:59;;;;;;;2.33;0.77;;;;;;;;;;4736486;30;20140;-60
2022/06/11 06:06:26;;;;;;;1.58;0.70;;;;;;;;;;4736349;30;20048;-60
2022/06/11 06:08:54;;;;;;;1.10;0.70;;;;;;;;;;4736389;30;20045;-61
2022/06/11 06:11:21;;;;;;;4.00;0.70;;;;;;;;;;4734645;30;20497;-60
2022/06/11 06:13:49;;;;;;;6.55;2.70;;;;;;;;;;4736521;30;20051;-57
2022/06/11 06:16:18;;;;;;;2.40;1.10;;;;;;;;;;4735526;30;20080;-60
2022/06/11 06:18:48;;;;;;;1.13;0.50;;;;;;;;;;4736455;30;20442;-60
2022/06/11 06:21:18;;;;;;;1.23;0.70;;;;;;;;;;4736170;30;20040;-57
2022/06/11 06:23:45;;;;;;;2.97;0.60;;;;;;;;;;4736260;30;20053;-58
2022/06/11 06:26:12;;;;;;;1.23;0.70;;;;;;;;;;4734867;30;20506;-60
2022/06/11 06:28:41;;;;;;;0.90;0.45;;;;;;;;;;4735996;30;20052;-61
2022/06/11 06:31:10;;;;;;;3.25;0.90;;;;;;;;;;4735956;30;20510;-60
2022/06/11 06:33:38;;;;;;;3.35;0.60;;;;;;;;;;4735825;30;20080;-60
2022/06/11 06:36:07;;;;;;;2.28;0.52;;;;;;;;;;4735979;30;20055;-62
2022/06/11 06:38:36;;;;;;;1.50;0.60;;;;;;;;;;4735768;30;20068;-56
2022/06/11 06:41:04;;;;;;;52.85;27.30;;;;;;;;;;4735705;30;20505;-61
2022/06/11 06:43:33;;;;;;;4.45;1.92;;;;;;;;;;4735525;30;20044;-61
2022/06/11 06:46:01;;;;;;;1.17;0.60;;;;;;;;;;4735729;30;20056;-61
2022/06/11 06:48:28;;;;;;;1.30;0.57;;;;;;;;;;4735661;30;20064;-60
2022/06/11 06:50:56;;;;;;;1.80;0.77;;;;;;;;;;4735603;30;20049;-62
2022/06/11 06:53:25;;;;;;;2.10;1.00;;;;;;;;;;4735550;30;20048;-61
2022/06/11 06:55:53;;;;;;;2.25;1.20;;;;;;;;;;4735458;30;20048;-60
2022/06/11 06:58:21;;;;;;;2.85;0.80;;;;;;;;;;4735445;30;20048;-60
2022/06/11 07:00:49;;;;;;;26.60;15.98;;;;;;;;;;4735719;30;20052;-60
2022/06/11 07:03:17;;;;;;;2.40;1.15;;;;;;;;;;4735471;30;20045;-61
2022/06/11 07:05:44;;;;;;;3.83;1.08;;;;;;;;;;4735270;30;20036;-61
2022/06/11 07:08:13;;;;;;;2.22;0.73;;;;;;;;;;4735031;30;20398;-60
2022/06/11 07:10:47;;;;;;;1.70;0.77;;;;;;;;;;4735192;30;20069;-60
2022/06/11 07:13:15;;;;;;;3.55;0.88;;;;;;;;;;4735360;30;20044;-61
2022/06/11 07:15:43;;;;;;;1.58;0.90;;;;;;;;;;4734941;30;20052;-61
2022/06/11 07:18:40;;;;;;;1.35;0.70;;;;;;;;;;4735192;30;20061;-60
2022/06/11 07:21:13;;;;;;;4.20;0.75;;;;;;;;;;4734681;30;20414;-60
2022/06/11 07:23:44;;;;;;;5.30;0.88;;;;;;;;;;4734959;30;20771;-62
2022/06/11 07:26:17;;;;;;;2.05;0.82;;;;;;;;;;4734997;30;20049;-62
2022/06/11 07:28:54;;;;;;;1.90;0.88;;;;;;;;;;4733999;30;20052;-60
2022/06/11 07:31:22;;;;;;;1.63;0.70;;;;;;;;;;4734769;30;20056;-59
2022/06/11 07:33:49;;;;;;;3.90;0.70;;;;;;;;;;4735112;30;20048;-60
2022/06/11 07:36:18;;;;;;;2.72;0.50;;;;;;;;;;4734940;30;20060;-57
2022/06/11 07:38:46;;;;;;;0.77;0.50;;;;;;;;;;4734751;30;20510;-59
2022/06/11 07:41:15;;;;;;;1.15;0.60;;;;;;;;;;4734710;30;20045;-62
2022/06/11 07:43:43;;;;;;;21.52;16.55;;;;;;;;;;4734398;30;20460;-58
2022/06/11 07:46:10;;;;;;;2.70;1.65;;;;;;;;;;4734728;30;20065;-54
2022/06/11 07:48:38;;;;;;;2.08;1.05;;;;;;;;;;4734864;30;20041;-60
2022/06/11 07:51:05;;;;;;;2.08;0.90;;;;;;;;;;4734659;30;20422;-58
2022/06/11 07:53:32;;;;;;;5.25;0.90;;;;;;;;;;4734521;30;20079;-61
2022/06/11 07:56:00;;;;;;;1.80;0.98;;;;;;;;;;4734548;30;20062;-59
2022/06/11 07:58:30;;;;;;;1.17;0.60;;;;;;;;;;4734383;30;20084;-56
2022/06/11 08:00:59;;;;;;;1.17;0.70;;;;;;;;;;4734348;30;20453;-58
2022/06/11 08:03:31;;;;;;;1.35;0.60;;;;;;;;;;4734279;30;20061;-60
2022/06/11 08:06:02;;;;;;;3.67;0.82;;;;;;;;;;4734375;30;20060;-57
2022/06/11 08:08:31;;;;;;;1.27;0.80;;;;;;;;;;4734322;30;20468;-60
2022/06/11 08:11:00;;;;;;;1.05;0.70;;;;;;;;;;4732805;30;20045;-60
2022/06/11 08:13:27;;;;;;;1.98;0.85;;;;;;;;;;4732337;30;20060;-60
2022/06/11 08:15:55;;;;;;;0.80;0.50;;;;;;;;;;4732291;30;20074;-60
2022/06/11 08:18:24;;;;;;;2.10;0.73;;;;;;;;;;4732304;30;20052;-60
2022/06/11 08:20:52;;;;;;;0.70;0.60;;;;;;;;;;4732449;30;20051;-59
2022/06/11 08:23:22;;;;;;;1.10;0.60;;;;;;;;;;4732558;30;20064;-53
2022/06/11 08:26:02;;;;;;;2.83;0.80;;;;;;;;;;4733631;30;20446;-60
2022/06/11 08:28:29;;;;;;;3.08;0.63;;;;;;;;;;4734125;30;20052;-60
2022/06/11 08:30:57;;;;;;;1.33;0.70;;;;;;;;;;4734154;30;20409;-60
2022/06/11 08:33:24;;;;;;;1.38;0.77;;;;;;;;;;4734105;30;20052;-60
2022/06/11 08:35:52;;;;;;;1.48;0.60;;;;;;;;;;4733808;30;20049;-59
2022/06/11 08:38:19;;;;;;;3.15;0.80;;;;;;;;;;4734165;30;20044;-60
2022/06/11 08:40:50;;;;;;;4.47;1.65;;;;;;;;;;4733768;30;20045;-60
2022/06/11 08:43:27;;;;;;;1.05;0.70;;;;;;;;;;4734073;30;20106;-60
2022/06/11 08:46:13;;;;;;;1.17;0.60;;;;;;;;;;4733967;30;20041;-60
2022/06/11 08:48:58;;;;;;;0.63;0.52;;;;;;;;;;4734155;30;20048;-60
2022/06/11 08:51:33;;;;;;;1.27;0.60;;;;;;;;;;4733790;30;20506;-60
2022/06/11 08:54:05;;;;;;;1.20;0.60;;;;;;;;;;4733817;30;20053;-58
2022/06/11 08:56:41;;;;;;;2.22;0.63;;;;;;;;;;4734073;30;20048;-62
2022/06/11 08:59:14;;;;;;;2.50;0.70;;;;;;;;;;4733782;30;20099;-59
2022/06/11 09:02:22;;;;;;;2.92;0.88;;;;;;;;;;4733788;30;20135;-56
2022/06/11 09:05:04;;;;;;;3.42;0.90;;;;;;;;;;4733635;30;20510;-59
2022/06/11 09:07:43;;;;;;;4.13;0.93;;;;;;;;;;4733543;30;20090;-58
2022/06/11 09:10:16;;;;;;;5.22;0.77;;;;;;;;;;4733746;30;20227;-59
2022/06/11 09:12:56;;;;;;;2.05;0.70;;;;;;;;;;4733737;30;20138;-58
2022/06/11 09:16:02;;;;;;;1.85;0.70;;;;;;;;;;4733516;30;20079;-59
2022/06/11 09:18:42;;;;;;;2.70;0.73;;;;;;;;;;4713920;30;20049;-59
2022/06/11 09:21:35;;;;;;;1.05;0.63;;;;;;;;;;4731856;30;20644;-59
2022/06/11 09:24:27;;;;;;;3.90;0.63;;;;;;;;;;4733693;30;20049;-59
2022/06/11 09:27:09;;;;;;;0.93;0.60;;;;;;;;;;4733703;30;20084;-59
2022/06/11 09:29:49;;;;;;;1.65;0.60;;;;;;;;;;4731965;30;20061;-59
2022/06/11 09:32:25;;;;;;;1.73;0.63;;;;;;;;;;4733621;30;20048;-58
2022/06/11 09:35:06;;;;;;;1.63;0.70;;;;;;;;;;4733465;30;20057;-59
2022/06/11 09:37:57;;;;;;;2.42;0.73;;;;;;;;;;4733282;30;20086;-58
2022/06/11 09:40:38;;;;;;;1.70;0.85;;;;;;;;;;4724253;30;20075;-57
2022/06/11 09:43:24;;;;;;;2.78;0.70;;;;;;;;;;4733376;30;20084;-58
2022/06/11 09:46:23;;;;;;;2.20;0.50;;;;;;;;;;4733449;30;20049;-55
2022/06/11 09:49:18;;;;;;;1.70;0.90;;;;;;;;;;4733459;30;20055;-60
2022/06/11 09:52:07;;;;;;;2.58;0.80;;;;;;;;;;4734061;30;20074;-61
2022/06/11 09:54:43;;;;;;;0.70;0.50;;;;;;;;;;4736446;30;20048;-60
2022/06/11 09:57:21;;;;;;;4.15;0.90;;;;;;;;;;4736428;30;20072;-60
2022/06/11 10:00:14;;;;;;;0.98;0.80;;;;;;;;;;4736502;30;20106;-60
2022/06/11 10:03:28;;;;;;;1.48;0.90;;;;;;;;;;4736392;30;20471;-61
2022/06/11 10:06:23;;;;;;;1.13;0.68;;;;;;;;;;4736379;30;20049;-61
2022/06/11 10:09:00;;;;;;;1.93;0.77;;;;;;;;;;4736434;30;20049;-57
2022/06/11 10:11:35;;;;;;;1.55;0.90;;;;;;;;;;4736301;30;20045;-60
2022/06/11 10:17:01;;;;;;;1.45;0.82;;;;;;;;;;4736313;30;20059;-56
2022/06/11 10:19:44;;;;;;;1.10;0.80;;;;;;;;;;4736082;30;20051;-61
2022/06/11 10:22:29;;;;;;;1.90;0.88;;;;;;;;;;4736317;30;20120;-60
2022/06/11 10:25:15;;;;;;;0.93;0.70;;;;;;;;;;4749630;30;20052;-60
2022/06/11 10:27:49;;;;;;;1.05;0.70;;;;;;;;;;4736457;30;20063;-60
2022/06/11 10:30:48;;;;;;;3.03;0.80;;;;;;;;;;4736164;30;20049;-60
2022/06/11 10:33:25;;;;;;;4.65;1.10;;;;;;;;;;4735984;30;20056;-57
2022/06/11 10:36:25;;;;;;;1.35;0.80;;;;;;;;;;4735810;30;20055;-59
2022/06/11 10:39:11;;;;;;;3.95;0.82;;;;;;;;;;4735597;30;20425;-56
2022/06/11 10:41:44;;;;;;;2.97;1.08;;;;;;;;;;4735672;30;20053;-60
2022/06/11 10:44:35;;;;;;;1.63;0.75;;;;;;;;;;4749202;30;20078;-50
2022/06/11 10:47:38;;;;;;;1.65;0.80;;;;;;;;;;4735441;30;20076;-59
2022/06/11 10:50:11;;;;;;;2.70;0.80;;;;;;;;;;4735597;30;20045;-60
2022/06/11 10:53:05;;;;;;;2.97;0.98;;;;;;;;;;4735651;30;20044;-60
2022/06/11 10:55:40;;;;;;;1.33;0.70;;;;;;;;;;4735308;30;20537;-60
2022/06/11 10:58:23;;;;;;;1.23;0.47;;;;;;;;;;4735392;30;20044;-60
2022/06/11 11:00:55;;;;;;;1.35;0.70;;;;;;;;;;4735686;30;20098;-60
2022/06/11 11:03:34;;;;;;;2.22;0.77;;;;;;;;;;4734910;30;20048;-60
2022/06/11 11:06:08;;;;;;;1.40;0.82;;;;;;;;;;4735286;30;20119;-60
2022/06/11 11:08:49;;;;;;;2.00;1.10;;;;;;;;;;4735197;30;20509;-60
2022/06/11 11:11:16;;;;;;;1.20;0.80;;;;;;;;;;4748630;30;20057;-61
2022/06/11 11:13:48;;;;;;;3.05;1.20;;;;;;;;;;4735334;30;20579;-61
2022/06/11 11:16:30;;;;;;;1.70;0.80;;;;;;;;;;4735042;30;20087;-60
2022/06/11 11:19:18;;;;;;;1.83;1.15;;;;;;;;;;4735051;30;20049;-60
2022/06/11 11:22:03;;;;;;;1.45;0.95;;;;;;;;;;4735074;30;20103;-60
2022/06/11 11:24:36;;;;;;;2.65;0.90;;;;;;;;;;4734929;30;20076;-60
2022/06/11 11:27:17;;;;;;;3.03;1.08;;;;;;;;;;4735079;30;20132;-60
2022/06/11 11:30:10;;;;;;;1.20;0.93;;;;;;;;;;4734912;30;20084;-60
2022/06/11 11:32:45;;;;;;;2.00;0.90;;;;;;;;;;4734417;30;20817;-60
2022/06/11 11:35:36;;;;;;;1.58;0.80;;;;;;;;;;4733592;30;20085;-61
2022/06/11 11:38:15;;;;;;;1.13;0.93;;;;;;;;;;4734823;30;20057;-60
2022/06/11 11:40:53;;;;;;;3.13;1.42;;;;;;;;;;4734818;30;20421;-60
2022/06/11 11:43:23;;;;;;;4.63;1.00;;;;;;;;;;4734655;30;20080;-60
2022/06/11 11:46:01;;;;;;;2.30;1.02;;;;;;;;;;4734959;30;20041;-60
2022/06/11 11:48:33;;;;;;;1.60;1.00;;;;;;;;;;4734637;30;20044;-60
2022/06/11 11:51:17;;;;;;;1.55;1.00;;;;;;;;;;4734729;30;20102;-61
2022/06/11 11:53:48;;;;;;;11.40;7.47;;;;;;;;;;4734313;30;20052;-61
2022/06/11 11:56:29;;;;;;;4.30;2.10;;;;;;;;;;4734470;30;20052;-60
2022/06/11 11:59:01;;;;;;;3.13;1.30;;;;;;;;;;4734568;30;20041;-60
2022/06/11 12:01:30;;;;;;;1.27;0.80;;;;;;;;;;4734365;30;20049;-52
2022/06/11 12:04:17;;;;;;;2.25;0.95;;;;;;;;;;4734378;30;20106;-58
2022/06/11 12:06:53;;;;;;;1.30;0.80;;;;;;;;;;4747432;30;20593;-58
2022/06/11 12:09:50;;;;;;;2.25;1.17;;;;;;;;;;4734333;30;20056;-60
2022/06/11 12:12:29;;;;;;;4.15;1.20;;;;;;;;;;4734489;30;20532;-61
2022/06/11 12:14:59;;;;;;;5.78;2.42;;;;;;;;;;4733828;30;20045;-60
2022/06/11 12:17:44;;;;;;;2.08;1.17;;;;;;;;;;4747577;30;20132;-59
2022/06/11 12:20:46;;;;;;;4.32;0.90;;;;;;;;;;4734150;30;20052;-60
2022/06/11 12:23:27;;;;;;;1.20;0.82;;;;;;;;;;4734325;30;20057;-60
2022/06/11 12:26:05;;;;;;;2.63;0.80;;;;;;;;;;4734114;30;20052;-59
2022/06/11 12:28:37;;;;;;;1.63;0.80;;;;;;;;;;4734249;30;20086;-59
2022/06/11 12:31:12;;;;;;;2.17;0.90;;;;;;;;;;4734057;30;20049;-61
2022/06/11 12:33:43;;;;;;;2.95;0.82;;;;;;;;;;4734182;30;20122;-59
2022/06/11 12:36:19;;;;;;;3.85;1.10;;;;;;;;;;4734128;30;20083;-61
2022/06/11 12:39:04;;;;;;;3.13;1.02;;;;;;;;;;4733918;30;20056;-60
2022/06/11 12:41:40;;;;;;;1.58;0.90;;;;;;;;;;4733811;30;20045;-59
2022/06/11 12:44:26;;;;;;;1.60;0.93;;;;;;;;;;4733870;30;20041;-61
2022/06/11 12:47:18;;;;;;;1.17;0.88;;;;;;;;;;4733805;30;20513;-59
2022/06/11 12:50:09;;;;;;;1.52;1.05;;;;;;;;;;4733872;30;20051;-61
2022/06/11 12:52:51;;;;;;;3.75;0.73;;;;;;;;;;4732786;30;20064;-60
2022/06/11 12:55:38;;;;;;;1.30;0.75;;;;;;;;;;4734196;30;20040;-61
2022/06/11 12:58:33;;;;;;;12.60;7.43;;;;;;;;;;4744108;30;20084;-59
2022/06/11 13:01:13;;;;;;;3.38;1.02;;;;;;;;;;4716312;30;20453;-61
2022/06/11 13:03:49;;;;;;;1.80;0.90;;;;;;;;;;4716069;30;20065;-62
2022/06/11 13:06:19;;;;;;;1.40;0.80;;;;;;;;;;4716250;30;20458;-61
2022/06/11 13:08:58;;;;;;;1.67;1.00;;;;;;;;;;4716065;30;20049;-61
2022/06/11 13:12:11;;;;;;;1.20;0.90;;;;;;;;;;4716026;30;20802;-60
2022/06/11 13:15:16;;;;;;;1.85;0.80;;;;;;;;;;4714830;30;20061;-61
2022/06/11 13:17:54;;;;;;;3.70;1.80;;;;;;;;;;4716297;30;20053;-61
2022/06/11 13:20:57;;;;;;;5.18;1.00;;;;;;;;;;4716313;30;20057;-61
2022/06/11 13:23:24;;;;;;;4.40;1.35;;;;;;;;;;4717666;30;20085;-55
2022/06/11 13:26:02;;;;;;;1.92;1.00;;;;;;;;;;4717430;30;20526;-60
2022/06/11 13:28:42;;;;;;;1.92;1.00;;;;;;;;;;4719662;30;20402;-60
2022/06/11 13:31:12;;;;;;;2.75;0.90;;;;;;;;;;4719559;30;20079;-60
2022/06/11 13:34:00;;;;;;;1.10;0.80;;;;;;;;;;4719342;30;20056;-59
2022/06/11 13:36:41;;;;;;;1.23;0.70;;;;;;;;;;4719422;30;20049;-61
2022/06/11 13:39:29;;;;;;;9.15;1.20;;;;;;;;;;4719342;30;20306;-60
2022/06/11 13:42:02;;;;;;;;;;;;;;;;;;4719803;30;20053;-60
2022/06/11 13:45:03;;;;;;;3.72;1.00;;;;;;;;;;4719227;30;19938;-60
2022/06/11 13:48:05;;;;;;;2.42;0.90;;;;;;;;;;4719085;30;20051;-60
2022/06/11 13:50:58;;;;;;;2.58;1.05;;;;;;;;;;4702611;30;20077;-61
2022/06/11 13:56:29;;;;;;;1.23;0.90;;;;;;;;;;4718829;30;20124;-59
2022/06/11 13:59:05;;;;;;;4.35;1.40;;;;;;;;;;4728770;30;20059;-60
2022/06/11 14:02:01;;;;;;;2.90;1.65;;;;;;;;;;4736222;30;20463;-60
2022/06/11 14:04:39;;;;;;;2.30;1.35;;;;;;;;;;4736375;30;20052;-61
2022/06/11 14:07:10;;;;;;;2.45;1.23;;;;;;;;;;4736243;30;20501;-60
2022/06/11 14:13:06;;;;;;;2.85;1.02;;;;;;;;;;4736317;30;20569;-60
2022/06/11 14:15:42;;;;;;;2.63;1.30;;;;;;;;;;4735991;30;20127;-59
2022/06/11 14:18:22;;;;;;;2.17;0.95;;;;;;;;;;4736071;30;20523;-60
2022/06/11 14:21:07;;;;;;;2.25;1.00;;;;;;;;;;4736272;30;20498;-60
2022/06/11 14:23:35;;;;;;;2.33;1.17;;;;;;;;;;4736016;30;20055;-60
2022/06/11 14:26:06;;;;;;;2.67;1.23;;;;;;;;;;4736197;30;20067;-60
2022/06/11 14:28:33;;;;;;;9.90;1.05;;;;;;;;;;4735983;30;20549;-60
2022/06/11 14:31:07;;;;;;;1.40;0.90;;;;;;;;;;4736018;30;20128;-60
2022/06/11 14:33:39;;;;;;;1.50;1.10;;;;;;;;;;4735879;30;20127;-60
2022/06/11 14:36:28;;;;;;;1.63;0.95;;;;;;;;;;4735864;30;20513;-60
2022/06/11 14:39:00;;;;;;;2.88;1.23;;;;;;;;;;4735215;30;20401;-60
2022/06/11 14:41:36;;;;;;;2.17;0.97;;;;;;;;;;4735878;30;20079;-60
2022/06/11 14:44:04;;;;;;;1.88;1.00;;;;;;;;;;4735772;30;20471;-60
2022/06/11 14:46:36;;;;;;;3.38;1.10;;;;;;;;;;4735703;30;20041;-59
2022/06/11 14:49:36;;;;;;;3.03;1.30;;;;;;;;;;4735893;30;20052;-60
2022/06/11 14:52:15;;;;;;;1.25;0.93;;;;;;;;;;4748932;30;20045;-60
2022/06/11 14:54:55;;;;;;;2.95;0.90;;;;;;;;;;4735609;30;20049;-61
2022/06/11 14:58:16;;;;;;;1.27;1.00;;;;;;;;;;4734522;30;20084;-60
2022/06/11 15:01:03;;;;;;;3.03;1.10;;;;;;;;;;4698688;30;20076;-60
2022/06/11 15:03:37;;;;;;;2.97;1.40;;;;;;;;;;4698355;30;20511;-60
2022/06/11 15:06:29;;;;;;;1.70;1.10;;;;;;;;;;4711757;30;20515;-59
2022/06/11 15:09:41;;;;;;;3.92;1.95;;;;;;;;;;4717980;30;20053;-60
2022/06/11 15:12:46;;;;;;;3.42;2.05;;;;;;;;;;4717990;30;20053;-59
2022/06/11 15:15:26;;;;;;;3.65;2.40;;;;;;;;;;4717857;30;20094;-59
2022/06/11 15:18:06;;;;;;;2.75;1.85;;;;;;;;;;4717695;30;20047;-54
2022/06/11 15:20:44;;;;;;;4.28;2.92;;;;;;;;;;4717677;30;20056;-59
2022/06/11 15:23:25;;;;;;;3.65;1.88;;;;;;;;;;4717699;30;20539;-61
2022/06/11 15:25:56;;;;;;;3.35;1.98;;;;;;;;;;4717708;30;20069;-59
2022/06/11 15:28:23;;;;;;;4.85;1.48;;;;;;;;;;4717506;30;20124;-53
2022/06/11 15:30:53;;;;;;;3.03;1.50;;;;;;;;;;4717928;30;20417;-59
2022/06/11 15:33:28;;;;;;;2.15;1.48;;;;;;;;;;4717743;30;20049;-60
2022/06/11 15:36:06;;;;;;;1.98;1.20;;;;;;;;;;4717622;30;20410;-59
2022/06/11 15:38:39;;;;;;;1.80;1.20;;;;;;;;;;4717173;30;20061;-60
2022/06/11 15:41:35;;;;;;;1.58;1.17;;;;;;;;;;4717515;30;20052;-59
2022/06/11 15:44:14;;;;;;;10.38;9.38;;;;;;;;;;4730217;30;20510;-60